createdAt,value
2024-03-16T00:00:23.630Z,99763.22
2024-03-16T00:03:11.614Z,99763.19
2024-03-16T00:05:40.039Z,99765.69
2024-03-16T00:08:07.847Z,99759.19
2024-03-16T00:10:36.051Z,99765.25
2024-03-16T00:13:03.515Z,99758.19
2024-03-16T00:15:31.439Z,99756.31
2024-03-16T00:17:59.004Z,99763.19
2024-03-16T00:20:26.860Z,99766.50
2024-03-16T00:22:54.287Z,99761.69
2024-03-16T00:25:22.012Z,99761.06
2024-03-16T00:27:49.605Z,99756.31
2024-03-16T00:30:17.542Z,99763.34
2024-03-16T00:32:45.251Z,99762.13
2024-03-16T00:35:13.069Z,99763.34
2024-03-16T00:37:40.517Z,99763.75
2024-03-16T00:40:09.294Z,99760.00
2024-03-16T00:42:36.907Z,99748.59
2024-03-16T00:45:05.402Z,99744.88
2024-03-16T00:47:32.893Z,99735.09
2024-03-16T00:50:00.679Z,99741.97
2024-03-16T00:52:28.170Z,99740.03
2024-03-16T00:54:56.050Z,99747.53
2024-03-16T00:57:23.698Z,99742.69
2024-03-16T00:59:51.641Z,99734.75
2024-03-16T01:02:19.091Z,99733.91
2024-03-16T01:04:47.384Z,99726.66
2024-03-16T01:07:14.769Z,99724.78
2024-03-16T01:09:43.029Z,99729.56
2024-03-16T01:12:10.525Z,99729.78
2024-03-16T01:14:38.344Z,99724.78
2024-03-16T01:17:05.956Z,99730.75
2024-03-16T01:19:34.065Z,99732.16
2024-03-16T01:22:01.575Z,99725.28
2024-03-16T01:24:29.846Z,99723.44
2024-03-16T01:26:57.325Z,99726.28
2024-03-16T01:29:25.517Z,99717.16
2024-03-16T01:31:52.918Z,99717.75
2024-03-16T01:34:20.765Z,99712.41
2024-03-16T01:36:49.279Z,99713.38
2024-03-16T01:39:17.156Z,99707.84
2024-03-16T01:41:44.521Z,99709.84
2024-03-16T01:44:12.716Z,99711.63
2024-03-16T01:46:40.124Z,99712.88
2024-03-16T01:49:08.059Z,99706.59
2024-03-16T01:51:36.399Z,99710.91
2024-03-16T01:54:04.776Z,99716.22
2024-03-16T01:56:32.348Z,99716.16
2024-03-16T01:59:00.193Z,99726.03
2024-03-16T02:01:27.700Z,99721.84
2024-03-16T02:03:55.624Z,99718.31
2024-03-16T02:06:23.090Z,99723.91
2024-03-16T02:08:51.004Z,99732.69
2024-03-16T02:11:18.541Z,99732.88
2024-03-16T02:13:46.335Z,99734.44
2024-03-16T02:16:13.831Z,99726.69
2024-03-16T02:18:41.811Z,99724.53
2024-03-16T02:21:09.226Z,99729.56
2024-03-16T02:23:37.229Z,99729.41
2024-03-16T02:26:04.754Z,99733.63
2024-03-16T02:28:32.825Z,99735.53
2024-03-16T02:31:00.387Z,99726.00
2024-03-16T02:33:28.115Z,99741.31
2024-03-16T02:35:55.575Z,99734.56
2024-03-16T02:38:23.316Z,99746.69
2024-03-16T02:40:50.746Z,99745.84
2024-03-16T02:43:18.587Z,99745.41
2024-03-16T02:45:46.070Z,99742.94
2024-03-16T02:48:14.068Z,99747.19
2024-03-16T02:50:41.422Z,99750.28
2024-03-16T02:53:09.227Z,99745.28
2024-03-16T02:55:36.663Z,99748.03
2024-03-16T02:58:04.637Z,99740.03
2024-03-16T03:00:32.147Z,99746.47
2024-03-16T03:02:59.811Z,99744.59
2024-03-16T03:05:27.323Z,99741.81
2024-03-16T03:07:55.158Z,99750.97
2024-03-16T03:10:25.591Z,99741.34
2024-03-16T03:12:53.516Z,99745.13
2024-03-16T03:15:20.884Z,99741.88
2024-03-16T03:17:48.741Z,99749.00
2024-03-16T03:20:16.270Z,99745.91
2024-03-16T03:22:43.961Z,99746.81
2024-03-16T03:25:11.983Z,99747.25
2024-03-16T03:27:39.952Z,99742.34
2024-03-16T03:30:07.970Z,99749.06
2024-03-16T03:32:35.746Z,99752.16
2024-03-16T03:35:03.115Z,99756.00
2024-03-16T03:37:30.998Z,99753.75
2024-03-16T03:39:58.747Z,99749.38
2024-03-16T03:42:27.058Z,99756.00
2024-03-16T03:44:54.664Z,99758.41
2024-03-16T03:47:22.385Z,99766.44
2024-03-16T03:49:49.892Z,99765.31
2024-03-16T03:52:17.793Z,99762.09
2024-03-16T03:54:45.051Z,99760.81
2024-03-16T03:57:13.108Z,99770.75
2024-03-16T03:59:40.515Z,99773.97
2024-03-16T04:02:08.383Z,99768.53
2024-03-16T04:04:35.868Z,99769.06
2024-03-16T04:07:03.542Z,99766.56
2024-03-16T04:09:30.969Z,99765.44
2024-03-16T04:11:58.680Z,99765.72
2024-03-16T04:14:26.087Z,99762.22
2024-03-16T04:16:53.837Z,99752.56
2024-03-16T04:19:21.360Z,99758.78
2024-03-16T04:21:49.149Z,99750.84
2024-03-16T04:24:16.554Z,99756.97
2024-03-16T04:26:44.752Z,99764.69
2024-03-16T04:29:12.081Z,99756.72
2024-03-16T04:31:40.046Z,99761.31
2024-03-16T04:34:10.483Z,99764.41
2024-03-16T04:36:38.257Z,99762.31
2024-03-16T04:39:05.567Z,99767.56
2024-03-16T04:41:34.576Z,99769.97
2024-03-16T04:44:02.232Z,99768.31
2024-03-16T04:46:30.530Z,99771.50
2024-03-16T04:48:58.121Z,99774.69
2024-03-16T04:51:25.886Z,99769.59
2024-03-16T04:53:53.464Z,99774.78
2024-03-16T04:56:21.339Z,99772.06
2024-03-16T04:58:48.898Z,99783.09
2024-03-16T05:01:17.427Z,99780.72
2024-03-16T05:03:45.031Z,99787.38
2024-03-16T05:06:12.830Z,99788.47
2024-03-16T05:08:40.268Z,99787.81
2024-03-16T05:11:08.128Z,99791.31
2024-03-16T05:13:36.080Z,99795.38
2024-03-16T05:16:07.405Z,99795.88
2024-03-16T05:18:34.877Z,99791.16
2024-03-16T05:21:02.761Z,99803.91
2024-03-16T05:23:33.326Z,99802.59
2024-03-16T05:26:01.482Z,99803.44
2024-03-16T05:28:28.954Z,99809.03
2024-03-16T05:30:57.041Z,99806.13
2024-03-16T05:33:24.529Z,99809.50
2024-03-16T05:35:52.482Z,99817.91
2024-03-16T05:38:19.892Z,99818.66
2024-03-16T05:40:48.181Z,99812.44
2024-03-16T05:43:15.852Z,99816.78
2024-03-16T05:45:43.763Z,99811.50
2024-03-16T05:48:11.072Z,99815.66
2024-03-16T05:50:39.473Z,99813.59
2024-03-16T05:53:06.930Z,99812.44
2024-03-16T05:55:34.965Z,99810.97
2024-03-16T05:58:02.652Z,99809.53
2024-03-16T06:00:30.414Z,99819.97
2024-03-16T06:03:00.940Z,99821.91
2024-03-16T06:05:29.075Z,99821.53
2024-03-16T06:07:56.618Z,99831.97
2024-03-16T06:10:24.600Z,99832.44
2024-03-16T06:12:52.134Z,99833.00
2024-03-16T06:15:20.064Z,99838.22
2024-03-16T06:17:47.562Z,99835.63
2024-03-16T06:20:15.629Z,99847.03
2024-03-16T06:22:42.963Z,99845.41
2024-03-16T06:25:11.450Z,99843.44
2024-03-16T06:27:39.139Z,99849.09
2024-03-16T06:30:07.638Z,99846.97
2024-03-16T06:32:35.576Z,99846.84
2024-03-16T06:35:03.698Z,99843.44
2024-03-16T06:37:31.386Z,99851.75
2024-03-16T06:39:59.750Z,99852.31
2024-03-16T06:42:27.329Z,99859.25
2024-03-16T06:44:55.151Z,99861.91
2024-03-16T06:47:22.584Z,99858.28
2024-03-16T06:49:50.607Z,99861.56
2024-03-16T06:52:18.032Z,99868.31
2024-03-16T06:54:46.117Z,99871.72
2024-03-16T06:57:13.944Z,99873.22
2024-03-16T06:59:42.363Z,99878.56
2024-03-16T07:02:11.785Z,99883.13
2024-03-16T07:04:41.509Z,99883.63
2024-03-16T07:07:09.193Z,99886.91
2024-03-16T07:09:38.382Z,99881.09
2024-03-16T07:12:09.970Z,99881.41
2024-03-16T07:14:38.121Z,99883.19
2024-03-16T07:17:05.443Z,99884.13
2024-03-16T07:19:33.563Z,99883.09
2024-03-16T07:22:01.230Z,99883.38
2024-03-16T07:24:29.376Z,99881.44
2024-03-16T07:26:56.961Z,99892.56
2024-03-16T07:29:25.483Z,99891.59
2024-03-16T07:31:53.511Z,99890.66
2024-03-16T07:34:21.749Z,99900.63
2024-03-16T07:36:49.774Z,99897.13
2024-03-16T07:39:17.978Z,99894.53
2024-03-16T07:41:45.544Z,99905.81
2024-03-16T07:44:14.034Z,99908.31
2024-03-16T07:46:41.285Z,99903.16
2024-03-16T07:49:10.278Z,99908.31
2024-03-16T07:51:38.175Z,99905.75
2024-03-16T07:54:07.285Z,99909.16
2024-03-16T07:56:35.607Z,99905.13
2024-03-16T07:59:08.658Z,99908.47
2024-03-16T08:01:36.298Z,99915.63
2024-03-16T08:04:04.722Z,99906.13
2024-03-16T08:06:32.461Z,99905.59
2024-03-16T08:09:00.750Z,99910.00
2024-03-16T08:11:28.379Z,99904.41
2024-03-16T08:13:56.762Z,99908.59
2024-03-16T08:16:24.334Z,99906.09
2024-03-16T08:18:52.416Z,99912.44
2024-03-16T08:21:20.037Z,99915.59
2024-03-16T08:23:48.018Z,99912.94
2024-03-16T08:26:15.932Z,99906.13
2024-03-16T08:28:44.268Z,99908.22
2024-03-16T08:31:12.229Z,99902.16
2024-03-16T08:33:40.619Z,99900.50
2024-03-16T08:36:08.412Z,99905.09
2024-03-16T08:38:36.303Z,99897.41
2024-03-16T08:41:06.198Z,99905.72
2024-03-16T08:43:37.204Z,99904.06
2024-03-16T08:46:05.468Z,99903.84
2024-03-16T08:48:33.575Z,99906.13
2024-03-16T08:51:01.038Z,99893.44
2024-03-16T08:53:32.067Z,99901.75
2024-03-16T08:55:59.979Z,99901.97
2024-03-16T08:58:28.419Z,99903.38
2024-03-16T09:00:56.241Z,99896.69
2024-03-16T09:03:24.541Z,99899.56
2024-03-16T09:05:52.308Z,99892.66
2024-03-16T09:08:20.617Z,99898.47
2024-03-16T09:10:51.238Z,99892.53
2024-03-16T09:13:20.195Z,99892.84
2024-03-16T09:15:48.021Z,99890.50
2024-03-16T09:18:25.636Z,99894.47
2024-03-16T09:20:53.202Z,99888.22
2024-03-16T09:23:22.377Z,99889.44
2024-03-16T09:25:56.777Z,99891.78
2024-03-16T09:31:07.254Z,99893.22
2024-03-16T09:33:35.456Z,99891.00
2024-03-16T09:36:03.085Z,99900.69
2024-03-16T09:38:30.932Z,99905.47
2024-03-16T09:40:58.459Z,99908.53
